createdAt,value
2023-02-16T00:01:27.632Z,22.10
2023-02-16T00:03:56.567Z,22.10
2023-02-16T00:06:25.408Z,22.00
2023-02-16T00:08:55.764Z,22.00
2023-02-16T00:11:46.595Z,22.00
2023-02-16T00:14:16.571Z,22.00
2023-02-16T00:16:44.460Z,21.90
2023-02-16T00:19:21.442Z,21.90
2023-02-16T00:21:50.858Z,21.90
2023-02-16T00:24:19.131Z,21.80
2023-02-16T00:26:48.043Z,21.80
2023-02-16T00:29:21.534Z,21.70
2023-02-16T00:31:50.469Z,21.80
2023-02-16T00:34:30.628Z,21.70
2023-02-16T00:36:59.916Z,21.70
2023-02-16T00:39:28.679Z,21.60
2023-02-16T00:41:59.188Z,21.60
2023-02-16T00:44:34.340Z,21.60
2023-02-16T00:47:06.679Z,21.60
2023-02-16T00:49:34.764Z,21.60
2023-02-16T00:52:03.068Z,21.60
2023-02-16T00:54:32.152Z,21.60
2023-02-16T00:57:00.482Z,21.50
2023-02-16T00:59:29.952Z,21.50
2023-02-16T01:01:58.359Z,21.50
2023-02-16T01:04:26.730Z,21.40
2023-02-16T01:07:12.248Z,21.40
2023-02-16T01:09:57.815Z,21.40
2023-02-16T01:12:25.933Z,21.40
2023-02-16T01:14:57.142Z,21.40
2023-02-16T01:17:25.860Z,21.40
2023-02-16T01:19:53.958Z,21.30
2023-02-16T01:22:22.077Z,21.30
2023-02-16T01:24:50.158Z,21.30
2023-02-16T01:27:18.282Z,21.30
2023-02-16T01:29:46.369Z,21.30
2023-02-16T01:32:15.887Z,21.20
2023-02-16T01:34:44.057Z,21.20
2023-02-16T01:37:16.466Z,21.20
2023-02-16T01:39:44.683Z,21.10
2023-02-16T01:42:20.898Z,21.10
2023-02-16T01:44:52.723Z,21.10
2023-02-16T01:47:33.489Z,21.10
2023-02-16T01:50:08.853Z,21.00
2023-02-16T01:52:41.533Z,21.00
2023-02-16T01:55:18.295Z,21.00
2023-02-16T01:57:48.877Z,21.00
2023-02-16T02:00:30.919Z,20.90
2023-02-16T02:03:16.683Z,21.00
2023-02-16T02:05:44.917Z,20.90
2023-02-16T02:08:22.726Z,20.90
2023-02-16T02:11:04.150Z,20.90
2023-02-16T02:13:40.420Z,20.90
2023-02-16T02:16:08.856Z,20.80
2023-02-16T02:18:38.713Z,20.80
2023-02-16T02:21:46.924Z,20.80
2023-02-16T02:24:46.477Z,20.80
2023-02-16T02:27:21.930Z,20.80
2023-02-16T02:30:08.138Z,20.80
2023-02-16T02:32:50.911Z,20.80
2023-02-16T02:35:33.694Z,20.70
2023-02-16T02:38:10.915Z,20.70
2023-02-16T02:40:48.667Z,20.60
2023-02-16T02:43:23.318Z,20.60
2023-02-16T02:45:55.801Z,20.50
2023-02-16T02:48:24.042Z,20.50
2023-02-16T02:51:14.006Z,20.60
2023-02-16T02:53:43.934Z,20.80
2023-02-16T02:56:31.403Z,20.30
2023-02-16T02:59:25.452Z,20.30
2023-02-16T03:01:57.586Z,19.90
2023-02-16T03:04:29.853Z,20.00
2023-02-16T03:06:59.951Z,20.30
2023-02-16T03:09:28.577Z,20.50
2023-02-16T03:12:27.214Z,20.20
2023-02-16T03:15:00.439Z,20.10
2023-02-16T03:17:52.393Z,20.00
2023-02-16T03:20:38.829Z,20.20
2023-02-16T03:23:26.376Z,20.20
2023-02-16T03:26:12.423Z,20.00
2023-02-16T03:29:01.112Z,20.00
2023-02-16T03:31:34.748Z,20.00
2023-02-16T03:34:03.942Z,20.20
2023-02-16T03:36:36.174Z,19.90
2023-02-16T03:39:05.726Z,19.70
2023-02-16T03:41:35.217Z,19.80
2023-02-16T03:44:03.283Z,19.70
2023-02-16T03:46:33.184Z,19.80
2023-02-16T03:49:01.250Z,20.10
2023-02-16T03:51:29.354Z,19.90
2023-02-16T03:53:57.440Z,19.90
2023-02-16T03:56:25.544Z,19.90
2023-02-16T03:58:53.598Z,20.00
2023-02-16T04:01:21.721Z,19.80
2023-02-16T04:03:51.196Z,19.90
2023-02-16T04:06:19.448Z,19.90
2023-02-16T04:08:47.571Z,20.10
2023-02-16T04:11:33.072Z,19.80
2023-02-16T04:14:01.292Z,19.80
2023-02-16T04:16:29.487Z,19.90
2023-02-16T04:18:59.013Z,19.90
2023-02-16T04:21:27.104Z,19.80
2023-02-16T04:23:55.175Z,19.80
2023-02-16T04:26:23.276Z,19.70
2023-02-16T04:28:51.554Z,20.00
2023-02-16T04:31:19.779Z,19.70
2023-02-16T04:36:18.528Z,19.60
2023-02-16T04:43:43.425Z,19.40
2023-02-16T04:48:40.306Z,19.40
2023-02-16T04:53:38.186Z,19.50
2023-02-16T04:56:06.619Z,19.80
2023-02-16T05:24:06.214Z,20.00
2023-02-16T05:26:36.932Z,20.00
2023-02-16T05:29:05.154Z,19.90
2023-02-16T05:31:33.600Z,20.00
2023-02-16T05:34:01.840Z,19.90
2023-02-16T05:46:27.340Z,19.80
2023-02-16T05:48:55.654Z,20.40
2023-02-16T05:51:24.424Z,19.80
2023-02-16T05:53:52.702Z,19.70
2023-02-16T05:56:21.892Z,20.00
2023-02-16T05:58:50.280Z,19.90
2023-02-16T06:01:19.735Z,19.70
2023-02-16T06:11:28.161Z,20.10
2023-02-16T06:16:30.117Z,20.10
2023-02-16T06:18:59.196Z,19.90
2023-02-16T06:44:00.545Z,20.70
2023-02-16T06:48:58.597Z,19.80
2023-02-16T06:51:27.515Z,19.70
2023-02-16T07:31:11.786Z,20.90
2023-02-16T07:58:31.555Z,21.90
2023-02-16T08:01:08.551Z,21.60
2023-02-16T08:31:04.447Z,21.30
2023-02-16T08:41:00.856Z,21.80
2023-02-16T08:48:28.800Z,21.80
2023-02-16T08:58:25.584Z,22.50
2023-02-16T09:05:55.013Z,22.80
2023-02-16T09:18:17.472Z,22.60
2023-02-16T09:20:47.112Z,23.00
2023-02-16T09:23:16.727Z,23.00
2023-02-16T09:25:44.825Z,22.90
2023-02-16T09:28:13.827Z,23.00
2023-02-16T09:30:41.937Z,23.10
2023-02-16T09:33:10.052Z,23.20
2023-02-16T09:35:40.477Z,23.30
2023-02-16T09:38:09.075Z,23.50
2023-02-16T09:40:39.668Z,23.70
2023-02-16T09:43:16.321Z,23.80
2023-02-16T09:45:48.146Z,24.00
2023-02-16T09:48:25.566Z,24.10
2023-02-16T09:50:55.401Z,24.30
2023-02-16T09:53:27.085Z,24.40
2023-02-16T09:56:06.243Z,24.60
2023-02-16T09:58:42.949Z,24.80
2023-02-16T10:01:18.989Z,25.60
2023-02-16T10:03:55.888Z,26.20
2023-02-16T10:06:37.264Z,26.10
2023-02-16T10:09:09.338Z,26.00
2023-02-16T10:11:46.739Z,25.90
2023-02-16T10:14:25.418Z,25.80
2023-02-16T10:16:58.743Z,25.70
2023-02-16T10:19:32.241Z,25.70
2023-02-16T10:22:04.554Z,25.60
2023-02-16T10:24:43.613Z,25.50
2023-02-16T10:27:16.942Z,25.50
2023-02-16T10:29:45.268Z,25.60
2023-02-16T10:32:26.150Z,25.80
2023-02-16T10:35:01.705Z,26.50
2023-02-16T10:37:42.525Z,26.70
2023-02-16T10:40:26.964Z,26.50
2023-02-16T10:43:05.386Z,25.90
2023-02-16T10:45:38.428Z,25.40
2023-02-16T10:48:06.785Z,25.10
2023-02-16T10:50:38.881Z,25.10
2023-02-16T10:53:14.816Z,25.10
2023-02-16T10:55:42.919Z,25.40
2023-02-16T10:58:22.497Z,25.40
2023-02-16T11:00:53.594Z,25.20
2023-02-16T11:03:25.707Z,25.00
2023-02-16T11:05:54.741Z,24.80
2023-02-16T11:08:24.199Z,24.80
2023-02-16T11:10:54.856Z,24.80
2023-02-16T11:13:31.389Z,24.90
2023-02-16T11:16:02.596Z,25.00
2023-02-16T11:18:34.537Z,25.10
2023-02-16T11:21:04.103Z,25.20
2023-02-16T11:23:33.095Z,25.40
2023-02-16T11:26:04.166Z,25.40
2023-02-16T11:28:36.235Z,25.30
2023-02-16T11:31:16.999Z,25.20
2023-02-16T11:33:56.618Z,25.00
2023-02-16T11:36:30.526Z,24.70
2023-02-16T11:39:02.296Z,24.60
2023-02-16T11:41:33.428Z,24.50
2023-02-16T11:44:04.333Z,24.20
2023-02-16T11:46:41.621Z,24.00
2023-02-16T11:49:23.474Z,24.00
2023-02-16T11:51:51.550Z,24.00
2023-02-16T11:54:20.936Z,24.00
2023-02-16T11:57:03.777Z,24.20
2023-02-16T11:59:38.780Z,24.30
2023-02-16T12:02:29.131Z,24.40
2023-02-16T12:05:10.684Z,24.50
2023-02-16T12:07:47.945Z,24.50
2023-02-16T12:10:23.191Z,24.50
2023-02-16T12:12:58.619Z,24.60
2023-02-16T12:15:33.963Z,24.60
2023-02-16T12:18:18.060Z,24.70
2023-02-16T12:20:51.470Z,24.70
2023-02-16T12:23:35.638Z,24.80
2023-02-16T12:26:27.012Z,24.80
2023-02-16T12:29:03.172Z,24.80
2023-02-16T12:31:47.306Z,24.90
2023-02-16T12:34:28.402Z,25.00
2023-02-16T12:37:03.547Z,25.50
2023-02-16T12:39:36.551Z,26.00
2023-02-16T12:42:22.136Z,26.50
2023-02-16T12:44:54.519Z,27.10
2023-02-16T12:47:30.886Z,27.90
2023-02-16T12:50:03.466Z,28.10
2023-02-16T12:52:40.305Z,28.20
2023-02-16T12:55:19.773Z,28.00
2023-02-16T12:57:53.767Z,27.70
2023-02-16T13:00:27.044Z,27.40
2023-02-16T13:03:05.006Z,27.10
2023-02-16T13:05:38.535Z,26.80
2023-02-16T13:08:15.632Z,26.50
2023-02-16T13:10:55.675Z,26.30
2023-02-16T13:13:27.607Z,26.10
2023-02-16T13:16:04.314Z,25.90
2023-02-16T13:18:38.243Z,25.70
2023-02-16T13:21:12.394Z,25.60
2023-02-16T13:23:56.180Z,25.40
2023-02-16T13:26:43.370Z,25.30
2023-02-16T13:29:45.218Z,25.20
2023-02-16T13:32:48.615Z,25.10
2023-02-16T13:35:32.769Z,25.00
2023-02-16T13:38:19.974Z,24.90
2023-02-16T13:41:10.473Z,24.90
2023-02-16T13:43:43.403Z,24.90
2023-02-16T13:46:18.838Z,24.80
2023-02-16T13:48:49.494Z,24.70
2023-02-16T13:51:22.006Z,24.70
2023-02-16T13:53:57.102Z,24.70
2023-02-16T13:56:36.308Z,24.70
2023-02-16T13:59:41.326Z,24.60
2023-02-16T14:02:13.872Z,24.70
2023-02-16T14:05:02.747Z,24.70
2023-02-16T14:07:38.363Z,24.70
2023-02-16T14:10:08.291Z,24.80
2023-02-16T14:12:40.635Z,25.10
2023-02-16T14:15:19.419Z,25.30
2023-02-16T14:17:47.527Z,25.40
2023-02-16T14:20:30.758Z,25.60
2023-02-16T14:23:01.154Z,27.00
2023-02-16T14:25:36.340Z,27.10
2023-02-16T14:28:07.010Z,27.10
2023-02-16T14:30:43.843Z,26.90
2023-02-16T14:33:20.343Z,26.60
2023-02-16T14:36:09.040Z,26.60
2023-02-16T14:38:43.711Z,26.30
2023-02-16T14:41:15.942Z,26.00
2023-02-16T14:43:47.034Z,25.80
2023-02-16T14:46:31.658Z,25.60
2023-02-16T14:49:33.644Z,25.30
2023-02-16T14:52:40.518Z,25.20
2023-02-16T14:55:41.169Z,25.00
2023-02-16T14:58:23.948Z,24.80
2023-02-16T15:00:55.680Z,24.70
2023-02-16T15:03:25.557Z,24.60
2023-02-16T15:05:58.440Z,24.50
2023-02-16T15:08:35.226Z,24.40
2023-02-16T15:11:15.774Z,24.30
2023-02-16T15:13:45.335Z,24.30
2023-02-16T15:16:17.215Z,24.20
2023-02-16T15:18:48.700Z,24.20
2023-02-16T15:21:21.337Z,24.20
2023-02-16T15:23:51.225Z,24.10
2023-02-16T15:26:22.791Z,24.00
2023-02-16T15:28:55.222Z,24.00
2023-02-16T15:31:30.989Z,23.90
2023-02-16T15:34:01.806Z,23.80
2023-02-16T15:36:35.404Z,23.80
2023-02-16T15:39:06.047Z,23.80
2023-02-16T15:41:38.344Z,23.70
2023-02-16T15:44:08.107Z,23.60
2023-02-16T15:46:38.509Z,23.60
2023-02-16T15:49:13.804Z,23.60
2023-02-16T15:51:43.260Z,23.50
2023-02-16T15:54:22.251Z,23.50
2023-02-16T15:56:53.672Z,23.40
2023-02-16T15:59:31.772Z,23.40
2023-02-16T16:02:03.097Z,23.40
2023-02-16T16:04:32.386Z,23.40
2023-02-16T16:07:01.156Z,23.50
2023-02-16T16:09:31.315Z,23.50
2023-02-16T16:12:02.827Z,23.40
2023-02-16T16:14:32.156Z,23.40
2023-02-16T16:17:00.607Z,23.30
2023-02-16T16:19:34.998Z,23.30
2023-02-16T16:22:04.350Z,23.30
2023-02-16T16:24:38.164Z,23.30
2023-02-16T16:27:10.122Z,23.30
2023-02-16T16:29:42.251Z,23.30
2023-02-16T16:32:20.689Z,23.20
2023-02-16T16:34:49.944Z,23.20
2023-02-16T16:37:27.648Z,23.00
2023-02-16T16:40:06.524Z,22.90
2023-02-16T16:42:39.938Z,22.80
2023-02-16T16:45:34.497Z,22.70
2023-02-16T16:48:08.590Z,22.70
2023-02-16T16:50:39.607Z,22.70
2023-02-16T16:53:39.129Z,22.70
2023-02-16T16:56:11.067Z,22.70
2023-02-16T16:58:40.581Z,22.70
2023-02-16T17:01:10.036Z,22.60
2023-02-16T17:03:38.090Z,22.60
2023-02-16T17:06:08.421Z,22.60
2023-02-16T17:08:36.515Z,22.60
2023-02-16T17:11:06.344Z,22.70
2023-02-16T17:13:34.214Z,22.70
2023-02-16T17:16:06.885Z,22.70
2023-02-16T17:18:35.342Z,22.70
2023-02-16T17:21:03.508Z,22.80
2023-02-16T17:23:31.575Z,22.80
2023-02-16T17:25:59.626Z,22.80
2023-02-16T17:28:28.710Z,22.80
2023-02-16T17:30:57.430Z,22.80
2023-02-16T17:33:26.868Z,22.80
2023-02-16T17:35:54.905Z,22.80
2023-02-16T17:38:24.310Z,22.80
2023-02-16T17:40:54.995Z,22.80
2023-02-16T17:43:24.170Z,22.80
2023-02-16T17:45:53.081Z,22.80
2023-02-16T17:48:23.009Z,22.80
2023-02-16T17:50:52.814Z,22.80
2023-02-16T17:53:22.864Z,22.70
2023-02-16T17:55:53.119Z,22.70
2023-02-16T17:58:22.661Z,22.70
2023-02-16T18:00:50.721Z,22.70
2023-02-16T18:03:19.124Z,22.60
2023-02-16T18:05:47.473Z,22.60
2023-02-16T18:08:16.862Z,22.60
2023-02-16T18:10:47.330Z,22.60
2023-02-16T18:13:15.923Z,22.50
2023-02-16T18:15:47.466Z,22.50
2023-02-16T18:18:16.896Z,22.50
2023-02-16T18:20:45.484Z,22.50
2023-02-16T18:23:14.533Z,22.50
2023-02-16T18:25:44.246Z,22.50
2023-02-16T18:28:14.850Z,22.40
2023-02-16T18:30:42.958Z,22.40
2023-02-16T18:33:11.371Z,22.30
2023-02-16T18:35:39.813Z,22.30
2023-02-16T18:38:08.027Z,22.30
2023-02-16T18:40:36.559Z,22.30
2023-02-16T18:43:05.950Z,22.30
2023-02-16T18:45:33.986Z,22.30
2023-02-16T18:48:02.018Z,22.20
2023-02-16T18:50:30.163Z,22.30
2023-02-16T18:52:58.230Z,22.20
2023-02-16T18:55:27.913Z,22.30
2023-02-16T18:57:55.964Z,22.20
2023-02-16T19:00:25.616Z,22.20
2023-02-16T19:02:54.364Z,22.20
2023-02-16T19:05:22.791Z,22.10
2023-02-16T19:07:51.266Z,22.10
2023-02-16T19:10:19.464Z,22.10
2023-02-16T19:12:47.623Z,22.10
2023-02-16T19:15:15.671Z,22.10
2023-02-16T19:17:45.128Z,22.10
2023-02-16T19:20:18.034Z,22.00
2023-02-16T19:22:46.332Z,22.00
2023-02-16T19:25:14.822Z,22.10
2023-02-16T19:27:42.891Z,22.00
2023-02-16T19:30:12.143Z,21.90
2023-02-16T19:32:41.526Z,21.90
2023-02-16T19:35:11.907Z,21.90
2023-02-16T19:37:40.354Z,21.90
2023-02-16T19:40:10.796Z,21.90
2023-02-16T19:42:39.359Z,21.90
2023-02-16T19:45:08.292Z,21.90
2023-02-16T19:47:36.437Z,21.90
2023-02-16T19:50:04.853Z,21.90
2023-02-16T19:52:34.277Z,21.90
2023-02-16T19:55:02.354Z,21.90
2023-02-16T19:57:30.378Z,21.90
2023-02-16T19:59:58.413Z,21.90
2023-02-16T20:02:26.503Z,21.80
2023-02-16T20:04:55.295Z,21.90
2023-02-16T20:07:23.329Z,21.80
2023-02-16T20:09:52.764Z,21.90
2023-02-16T20:12:21.077Z,21.90
2023-02-16T20:14:49.141Z,21.80
2023-02-16T20:17:17.228Z,21.80
2023-02-16T20:19:45.257Z,21.80
2023-02-16T20:22:14.482Z,21.80
2023-02-16T20:24:43.606Z,21.80
2023-02-16T20:27:13.569Z,21.80
2023-02-16T20:29:41.424Z,21.80
2023-02-16T20:32:09.544Z,21.80
2023-02-16T20:34:37.729Z,21.80
2023-02-16T20:37:05.906Z,21.70
2023-02-16T20:39:33.972Z,21.80
2023-02-16T20:42:02.122Z,21.80
2023-02-16T20:44:31.979Z,21.80
2023-02-16T20:47:00.038Z,21.80
2023-02-16T20:49:28.300Z,21.80
2023-02-16T20:51:56.338Z,21.70
2023-02-16T20:54:24.354Z,21.70
2023-02-16T20:56:53.632Z,21.80
2023-02-16T20:59:21.681Z,21.70
2023-02-16T21:01:52.650Z,21.70
2023-02-16T21:04:21.444Z,21.70
2023-02-16T21:06:49.616Z,21.70
2023-02-16T21:09:17.841Z,21.70
2023-02-16T21:11:45.994Z,21.70
2023-02-16T21:14:14.505Z,21.70
2023-02-16T21:16:43.012Z,21.60
2023-02-16T21:19:22.666Z,21.60
2023-02-16T21:21:51.455Z,21.60
2023-02-16T21:24:19.536Z,21.60
2023-02-16T21:26:47.787Z,21.60
2023-02-16T21:29:15.868Z,21.50
2023-02-16T21:31:44.173Z,21.50
2023-02-16T21:34:13.702Z,21.40
2023-02-16T21:36:42.058Z,21.40
2023-02-16T21:39:10.148Z,21.40
2023-02-16T21:41:37.276Z,21.40
2023-02-16T21:44:07.642Z,21.30
2023-02-16T21:46:37.295Z,21.30
2023-02-16T21:49:05.910Z,21.20
2023-02-16T21:51:37.878Z,21.20
2023-02-16T21:54:07.010Z,21.20
2023-02-16T21:56:36.831Z,21.20
2023-02-16T21:59:06.212Z,21.10
2023-02-16T22:01:36.481Z,21.10
2023-02-16T22:04:05.965Z,21.10
2023-02-16T22:06:38.552Z,21.00
2023-02-16T22:09:09.632Z,21.00
2023-02-16T22:11:37.974Z,21.00
2023-02-16T22:14:06.331Z,20.90
2023-02-16T22:16:36.642Z,20.90
2023-02-16T22:19:07.434Z,20.90
2023-02-16T22:21:38.414Z,20.90
2023-02-16T22:24:07.543Z,20.80
2023-02-16T22:26:37.012Z,20.80
2023-02-16T22:29:06.818Z,20.80
2023-02-16T22:31:35.199Z,20.70
2023-02-16T22:34:04.867Z,20.70
2023-02-16T22:36:33.640Z,20.60
2023-02-16T22:39:03.164Z,20.60
2023-02-16T22:41:31.354Z,20.50
2023-02-16T22:44:00.259Z,20.50
2023-02-16T22:46:30.504Z,20.50
2023-02-16T22:49:00.015Z,20.40
2023-02-16T22:51:29.841Z,20.40
2023-02-16T22:53:59.791Z,20.40
2023-02-16T22:56:29.802Z,20.40
2023-02-16T22:58:58.219Z,20.40
2023-02-16T23:01:27.765Z,20.40
2023-02-16T23:03:57.976Z,20.40
2023-02-16T23:06:29.006Z,20.40
2023-02-16T23:08:59.038Z,20.40
2023-02-16T23:11:27.767Z,20.40
2023-02-16T23:13:57.474Z,20.40
2023-02-16T23:16:27.297Z,20.40
2023-02-16T23:18:56.479Z,20.40
2023-02-16T23:21:27.189Z,20.40
2023-02-16T23:23:56.287Z,20.40
2023-02-16T23:26:26.472Z,20.40
2023-02-16T23:28:57.872Z,20.40
2023-02-16T23:31:26.405Z,20.40
2023-02-16T23:33:57.371Z,20.40
2023-02-16T23:36:25.508Z,20.40
2023-02-16T23:38:53.942Z,20.30
2023-02-16T23:41:22.012Z,20.30
2023-02-16T23:43:50.144Z,20.30
2023-02-16T23:46:19.676Z,20.20
2023-02-16T23:48:47.789Z,20.20
2023-02-16T23:51:15.876Z,20.20
2023-02-16T23:53:45.205Z,20.10
2023-02-16T23:56:17.116Z,20.10
2023-02-16T23:58:46.274Z,20.10
